createdAt,value
2019-05-10T11:35:47.198Z,52
2019-05-10T11:41:24.476Z,53
2019-05-10T11:43:27.316Z,54
2019-05-10T11:49:53.441Z,51
2019-05-10T11:57:26.618Z,50
2019-05-10T12:04:32.977Z,49
2019-05-10T12:09:53.162Z,50
2019-05-10T12:11:57.465Z,50
2019-05-10T12:22:17.442Z,50
2019-05-10T12:28:07.066Z,51
2019-05-10T12:54:34.734Z,54
2019-05-10T12:56:54.396Z,54
2019-05-10T13:03:49.612Z,53
2019-05-10T13:09:02.265Z,52
2019-05-10T13:16:12.236Z,53
2019-05-10T13:22:01.896Z,54
2019-05-10T13:22:56.589Z,55
2019-05-10T13:28:46.667Z,55
2019-05-10T13:34:36.194Z,55
2019-05-10T13:42:10.018Z,55
2019-05-10T13:47:48.099Z,55
2019-05-10T13:52:21.776Z,55
2019-05-10T14:13:04.432Z,48
2019-05-10T14:37:22.225Z,53
2019-05-10T14:42:37.488Z,53
2019-05-10T14:47:53.598Z,56
2019-05-10T14:53:10.526Z,59
2019-05-10T14:58:24.881Z,62
2019-05-10T15:03:47.796Z,63
2019-05-10T15:08:59.186Z,66
2019-05-10T15:14:15.221Z,69
2019-05-10T15:19:32.081Z,68
2019-05-10T15:24:45.806Z,69
2019-05-10T15:30:08.534Z,70
2019-05-10T15:35:22.475Z,70
2019-05-10T15:40:46.364Z,70
2019-05-10T15:45:59.722Z,70
2019-05-10T15:51:18.888Z,70
2019-05-10T15:59:27.250Z,78
2019-05-10T18:48:38.174Z,82
